createdAt,value
2019-04-16T00:02:51.395Z,3.33
2019-04-16T00:05:22.214Z,3.25
2019-04-16T00:07:59.773Z,2.80
2019-04-16T00:10:37.337Z,2.72
2019-04-16T00:13:11.865Z,3.52
2019-04-16T00:15:41.323Z,2.62
2019-04-16T00:18:09.934Z,2.83
2019-04-16T00:20:42.974Z,2.95
2019-04-16T00:23:16.141Z,2.92
2019-04-16T00:25:45.049Z,2.45
2019-04-16T00:28:14.018Z,2.80
2019-04-16T00:30:42.971Z,3.10
2019-04-16T00:33:11.947Z,2.77
2019-04-16T00:35:40.893Z,2.95
2019-04-16T00:38:10.071Z,2.55
2019-04-16T00:40:39.539Z,2.35
2019-04-16T00:43:08.625Z,3.05
2019-04-16T00:45:37.578Z,3.08
2019-04-16T00:48:06.511Z,2.30
2019-04-16T00:50:35.763Z,2.90
2019-04-16T00:53:07.820Z,2.60
2019-04-16T00:55:34.533Z,3.52
2019-04-16T00:58:03.421Z,3.02
2019-04-16T01:00:32.305Z,2.70
2019-04-16T01:03:01.064Z,3.47
2019-04-16T01:05:30.161Z,2.70
2019-04-16T01:07:59.249Z,2.47
2019-04-16T01:10:28.054Z,2.77
2019-04-16T01:12:56.961Z,3.08
2019-04-16T01:15:25.897Z,2.70
2019-04-16T01:17:54.789Z,2.80
2019-04-16T01:20:24.169Z,2.65
2019-04-16T01:22:53.489Z,2.70
2019-04-16T01:25:23.251Z,2.50
2019-04-16T01:27:59.797Z,2.80
2019-04-16T01:30:29.161Z,2.60
2019-04-16T01:33:02.916Z,2.45
2019-04-16T01:35:48.205Z,2.33
2019-04-16T01:38:34.560Z,2.52
2019-04-16T01:41:06.141Z,2.90
2019-04-16T01:43:35.419Z,2.60
2019-04-16T01:46:05.105Z,3.00
2019-04-16T01:48:38.713Z,2.67
2019-04-16T01:51:02.988Z,2.65
2019-04-16T01:53:31.701Z,2.50
2019-04-16T01:56:00.583Z,2.60
2019-04-16T01:58:33.497Z,2.87
2019-04-16T02:00:58.250Z,2.62
2019-04-16T02:03:28.176Z,3.00
2019-04-16T02:05:56.960Z,2.87
2019-04-16T02:08:28.345Z,2.45
2019-04-16T02:10:55.041Z,2.95
2019-04-16T02:13:24.172Z,2.50
2019-04-16T02:15:53.394Z,3.20
2019-04-16T02:18:22.088Z,3.40
2019-04-16T02:20:50.872Z,2.85
2019-04-16T02:23:19.780Z,2.75
2019-04-16T02:25:51.380Z,2.83
2019-04-16T02:28:17.764Z,3.15
2019-04-16T02:30:46.605Z,2.50
2019-04-16T02:33:15.544Z,2.80
2019-04-16T02:35:44.362Z,2.90
2019-04-16T02:38:14.216Z,2.60
2019-04-16T02:40:42.377Z,3.00
2019-04-16T02:43:11.259Z,2.33
2019-04-16T02:45:40.033Z,3.00
2019-04-16T02:48:15.254Z,2.60
2019-04-16T02:50:42.753Z,3.20
2019-04-16T02:53:16.960Z,2.85
2019-04-16T02:55:50.817Z,3.08
2019-04-16T02:58:24.105Z,3.45
2019-04-16T03:01:05.890Z,2.58
2019-04-16T03:03:39.008Z,2.72
2019-04-16T03:06:08.920Z,2.60
2019-04-16T03:08:37.848Z,2.60
2019-04-16T03:11:06.804Z,2.80
2019-04-16T03:13:35.709Z,3.52
2019-04-16T03:16:22.220Z,3.40
2019-04-16T03:18:55.140Z,3.35
2019-04-16T03:21:24.492Z,3.58
2019-04-16T03:23:53.180Z,3.02
2019-04-16T03:26:21.951Z,3.15
2019-04-16T03:28:50.908Z,2.80
2019-04-16T03:31:23.254Z,2.92
2019-04-16T03:33:50.877Z,3.07
2019-04-16T03:36:17.940Z,3.00
2019-04-16T03:38:46.794Z,3.20
2019-04-16T03:41:16.015Z,3.27
2019-04-16T03:43:44.855Z,2.95
2019-04-16T03:46:14.176Z,3.15
2019-04-16T03:48:42.420Z,3.35
2019-04-16T03:51:11.214Z,3.47
2019-04-16T03:53:39.996Z,3.80
2019-04-16T03:56:08.834Z,4.20
2019-04-16T03:58:38.544Z,3.40
2019-04-16T04:01:08.640Z,3.02
2019-04-16T04:03:37.733Z,2.83
2019-04-16T04:06:07.878Z,3.40
2019-04-16T04:08:35.335Z,3.10
2019-04-16T04:11:09.172Z,2.65
2019-04-16T04:13:34.273Z,2.90
2019-04-16T04:16:03.096Z,3.20
2019-04-16T04:18:32.271Z,3.10
2019-04-16T04:21:01.020Z,3.10
2019-04-16T04:23:29.792Z,3.20
2019-04-16T04:25:58.555Z,3.52
2019-04-16T04:28:27.300Z,2.98
2019-04-16T04:30:57.712Z,2.98
2019-04-16T04:33:30.435Z,3.30
2019-04-16T04:35:59.180Z,3.42
2019-04-16T04:38:28.082Z,3.27
2019-04-16T04:40:59.715Z,2.85
2019-04-16T04:43:25.727Z,2.85
2019-04-16T04:45:54.535Z,3.37
2019-04-16T04:48:24.294Z,3.05
2019-04-16T04:50:52.191Z,2.85
2019-04-16T04:53:20.925Z,3.27
2019-04-16T04:55:49.739Z,3.37
2019-04-16T04:58:18.671Z,3.30
2019-04-16T05:00:47.500Z,3.15
2019-04-16T05:03:20.439Z,2.92
2019-04-16T05:05:53.380Z,2.90
2019-04-16T05:08:21.663Z,3.33
2019-04-16T05:10:58.904Z,2.80
2019-04-16T05:13:23.893Z,3.20
2019-04-16T05:15:48.219Z,3.08
2019-04-16T05:18:17.227Z,3.33
2019-04-16T05:20:47.022Z,3.70
2019-04-16T05:23:14.617Z,3.85
2019-04-16T05:25:43.315Z,3.95
2019-04-16T05:28:13.311Z,3.23
2019-04-16T05:30:41.186Z,3.25
2019-04-16T05:33:11.420Z,4.05
2019-04-16T05:35:41.338Z,3.50
2019-04-16T05:38:09.006Z,2.87
2019-04-16T05:40:37.795Z,3.50
2019-04-16T05:43:06.547Z,3.47
2019-04-16T05:45:37.636Z,3.10
2019-04-16T05:48:05.079Z,3.10
2019-04-16T05:50:34.061Z,3.05
2019-04-16T05:53:05.479Z,2.90
2019-04-16T05:55:37.463Z,3.27
2019-04-16T05:58:06.258Z,3.52
2019-04-16T06:00:43.344Z,2.87
2019-04-16T06:03:12.602Z,3.42
2019-04-16T06:05:41.322Z,2.98
2019-04-16T06:08:12.170Z,2.90
2019-04-16T06:10:41.124Z,3.50
2019-04-16T06:13:15.318Z,2.80
2019-04-16T06:15:53.002Z,3.22
2019-04-16T06:20:28.166Z,4.10
2019-04-16T06:23:08.615Z,3.35
2019-04-16T06:25:44.622Z,3.72
2019-04-16T06:28:20.379Z,3.50
2019-04-16T06:31:54.586Z,4.20
2019-04-16T06:34:31.415Z,3.80
2019-04-16T06:37:05.167Z,3.27
2019-04-16T06:39:45.326Z,4.22
2019-04-16T06:42:22.505Z,3.93
2019-04-16T06:44:51.470Z,3.72
2019-04-16T06:47:31.544Z,4.70
2019-04-16T06:50:07.299Z,3.95
2019-04-16T06:52:41.146Z,3.67
2019-04-16T06:55:15.026Z,4.85
2019-04-16T06:57:48.910Z,3.55
2019-04-16T07:00:26.212Z,3.23
2019-04-16T07:04:06.769Z,2.58
2019-04-16T07:06:38.966Z,3.12
2019-04-16T07:09:12.942Z,3.33
2019-04-16T07:11:53.873Z,2.80
2019-04-16T07:14:15.694Z,3.33
2019-04-16T07:16:42.894Z,2.80
2019-04-16T07:19:12.218Z,2.02
2019-04-16T07:21:41.618Z,2.08
2019-04-16T07:24:10.479Z,2.40
2019-04-16T07:26:40.005Z,2.42
2019-04-16T07:29:13.281Z,2.62
2019-04-16T07:33:48.874Z,2.90
2019-04-16T07:36:27.268Z,2.85
2019-04-16T07:39:05.265Z,3.08
2019-04-16T07:42:51.224Z,2.30
2019-04-16T07:45:30.449Z,2.50
2019-04-16T07:48:06.495Z,2.60
2019-04-16T07:50:53.299Z,2.47
2019-04-16T07:53:27.242Z,2.25
2019-04-16T07:55:59.102Z,2.33
2019-04-16T07:58:27.825Z,2.52
2019-04-16T08:00:56.673Z,2.10
2019-04-16T08:03:26.708Z,1.77
2019-04-16T08:05:54.293Z,2.10
2019-04-16T08:08:24.726Z,1.97
2019-04-16T08:10:52.129Z,1.70
2019-04-16T08:13:20.910Z,2.20
2019-04-16T08:15:49.714Z,2.17
2019-04-16T08:18:18.497Z,2.22
2019-04-16T08:21:00.283Z,2.20
2019-04-16T08:23:21.702Z,2.50
2019-04-16T08:25:58.681Z,2.47
2019-04-16T08:28:19.874Z,2.58
2019-04-16T08:30:48.589Z,2.47
2019-04-16T08:33:17.797Z,2.77
2019-04-16T08:35:46.597Z,2.80
2019-04-16T08:38:15.429Z,2.47
2019-04-16T08:40:46.349Z,1.95
2019-04-16T08:43:13.097Z,1.92
2019-04-16T08:45:42.173Z,2.67
2019-04-16T08:48:16.849Z,2.57
2019-04-16T08:50:40.629Z,2.40
2019-04-16T08:53:13.281Z,2.12
2019-04-16T08:55:38.202Z,2.20
2019-04-16T08:58:07.609Z,2.58
2019-04-16T09:00:36.081Z,2.17
2019-04-16T09:03:04.757Z,2.70
2019-04-16T09:05:33.312Z,2.37
2019-04-16T09:08:12.892Z,2.30
2019-04-16T09:10:35.669Z,2.42
2019-04-16T09:13:06.831Z,2.50
2019-04-16T09:15:35.897Z,2.50
2019-04-16T09:18:10.557Z,2.42
2019-04-16T09:20:40.900Z,2.87
2019-04-16T09:23:09.732Z,2.37
2019-04-16T09:25:46.064Z,2.40
2019-04-16T09:28:25.255Z,2.42
2019-04-16T09:30:51.466Z,2.45
2019-04-16T09:33:24.549Z,2.67
2019-04-16T09:36:01.124Z,2.67
2019-04-16T09:38:38.782Z,2.35
2019-04-16T09:41:12.871Z,2.40
2019-04-16T09:43:44.948Z,2.25
2019-04-16T09:46:21.612Z,2.40
2019-04-16T09:48:42.217Z,2.30
2019-04-16T09:51:10.867Z,2.42
2019-04-16T09:53:40.263Z,2.20
2019-04-16T09:56:38.846Z,1.80
2019-04-16T09:59:16.113Z,2.30
2019-04-16T10:01:47.230Z,2.05
2019-04-16T10:04:18.156Z,1.85
2019-04-16T10:06:46.771Z,2.00
2019-04-16T10:09:20.051Z,2.05
2019-04-16T10:11:45.075Z,2.37
2019-04-16T10:14:13.783Z,2.00
2019-04-16T10:16:42.375Z,2.00
2019-04-16T10:19:10.967Z,2.20
2019-04-16T10:21:39.653Z,2.02
2019-04-16T10:24:14.099Z,2.73
2019-04-16T10:26:42.755Z,2.33
2019-04-16T10:29:14.589Z,2.20
2019-04-16T10:31:43.194Z,2.22
2019-04-16T10:34:11.806Z,2.30
2019-04-16T10:36:40.659Z,2.00
2019-04-16T10:39:15.334Z,1.60
2019-04-16T10:41:50.961Z,1.72
2019-04-16T10:44:24.646Z,1.98
2019-04-16T10:46:58.586Z,1.82
2019-04-16T10:50:30.580Z,1.67
2019-04-16T10:53:09.202Z,1.82
2019-04-16T10:55:43.312Z,3.33
2019-04-16T10:58:17.836Z,1.90
2019-04-16T11:01:06.985Z,1.82
2019-04-16T11:03:41.411Z,2.02
2019-04-16T11:06:16.525Z,2.50
2019-04-16T11:08:45.843Z,2.22
2019-04-16T11:11:14.824Z,2.37
2019-04-16T11:13:59.279Z,2.62
2019-04-16T11:16:17.120Z,2.20
2019-04-16T11:18:46.315Z,2.00
2019-04-16T11:21:17.061Z,2.02
2019-04-16T11:23:48.223Z,1.82
2019-04-16T11:26:17.595Z,1.93
2019-04-16T11:28:47.225Z,2.17
2019-04-16T11:31:18.102Z,2.27
2019-04-16T11:33:49.085Z,2.35
2019-04-16T11:36:20.997Z,2.20
2019-04-16T11:38:52.082Z,2.60
2019-04-16T11:41:21.504Z,2.20
2019-04-16T11:43:52.686Z,2.67
2019-04-16T11:46:28.404Z,2.27
2019-04-16T11:48:58.403Z,2.22
2019-04-16T11:51:28.227Z,2.60
2019-04-16T11:53:58.271Z,2.42
2019-04-16T11:56:27.265Z,2.70
2019-04-16T11:59:02.690Z,3.45
2019-04-16T12:01:38.491Z,3.60
2019-04-16T12:04:17.010Z,3.00
2019-04-16T12:07:16.014Z,3.83
2019-04-16T12:09:51.245Z,3.52
2019-04-16T12:12:25.639Z,3.47
2019-04-16T12:17:03.615Z,4.15
2019-04-16T12:19:39.809Z,3.65
2019-04-16T12:22:38.712Z,4.03
2019-04-16T12:25:43.356Z,3.30
2019-04-16T12:28:19.863Z,3.25
2019-04-16T12:32:03.579Z,3.70
2019-04-16T12:34:34.605Z,2.80
2019-04-16T12:37:10.889Z,3.60
2019-04-16T12:39:45.383Z,3.77
2019-04-16T12:42:23.179Z,3.10
2019-04-16T12:44:57.858Z,3.35
2019-04-16T12:47:43.935Z,2.67
2019-04-16T12:50:20.035Z,3.20
2019-04-16T12:52:56.208Z,3.02
2019-04-16T12:55:35.435Z,3.57
2019-04-16T12:58:11.249Z,3.52
2019-04-16T13:01:03.057Z,3.92
2019-04-16T13:03:46.313Z,3.72
2019-04-16T13:06:20.666Z,3.60
2019-04-16T13:08:56.011Z,3.92
2019-04-16T13:11:31.891Z,4.20
2019-04-16T13:14:08.361Z,3.85
2019-04-16T13:16:56.625Z,3.85
2019-04-16T13:19:34.770Z,4.10
2019-04-16T13:22:06.174Z,3.45
2019-04-16T13:24:41.650Z,3.83
2019-04-16T13:27:18.316Z,3.47
2019-04-16T13:29:48.124Z,3.47
2019-04-16T13:32:17.628Z,4.55
2019-04-16T13:34:47.024Z,3.85
2019-04-16T13:37:17.728Z,4.12
2019-04-16T13:39:52.514Z,3.80
2019-04-16T13:42:21.637Z,3.52
2019-04-16T13:44:57.193Z,3.90
2019-04-16T13:47:26.266Z,3.47
2019-04-16T13:50:08.603Z,3.98
2019-04-16T13:58:50.226Z,3.22
2019-04-16T14:20:12.805Z,2.92
2019-04-16T14:27:13.817Z,3.15
2019-04-16T14:29:42.539Z,3.20
2019-04-16T14:32:13.466Z,3.10
2019-04-16T14:38:12.852Z,3.08
2019-04-16T14:47:11.134Z,3.47
2019-04-16T14:49:40.551Z,3.40
2019-04-16T15:33:51.955Z,3.83
2019-04-16T15:36:24.474Z,3.50
2019-04-16T15:39:03.006Z,3.10
2019-04-16T15:41:48.950Z,3.55
2019-04-16T15:44:31.890Z,3.27
2019-04-16T15:47:06.190Z,3.92
2019-04-16T15:49:39.350Z,3.45
2019-04-16T15:52:13.403Z,3.12
2019-04-16T15:54:49.591Z,3.33
2019-04-16T17:47:30.755Z,5.28
2019-04-16T17:50:03.730Z,5.87
2019-04-16T17:52:35.589Z,5.75
2019-04-16T17:55:09.376Z,5.88
2019-04-16T17:57:47.911Z,5.92
2019-04-16T18:00:40.485Z,5.80
2019-04-16T18:03:16.183Z,6.28
2019-04-16T18:07:53.243Z,6.85
2019-04-16T19:27:07.866Z,7.00
2019-04-16T19:29:37.215Z,7.37
2019-04-16T19:32:06.298Z,7.20
2019-04-16T19:34:35.418Z,7.42
2019-04-16T19:37:05.262Z,11.65
2019-04-16T19:39:34.334Z,9.53
2019-04-16T19:42:03.396Z,8.13
2019-04-16T19:44:33.627Z,7.50
2019-04-16T19:47:01.256Z,7.78
2019-04-16T19:52:24.046Z,7.85
2019-04-16T19:54:54.221Z,8.05
2019-04-16T19:57:55.992Z,6.60
2019-04-16T20:00:23.538Z,6.55
2019-04-16T20:49:35.264Z,6.03
2019-04-16T20:59:23.787Z,6.20
2019-04-16T21:25:49.095Z,5.78
2019-04-16T21:28:28.420Z,5.97
2019-04-16T21:31:04.164Z,6.65
2019-04-16T21:33:49.241Z,6.45
2019-04-16T21:36:22.235Z,5.62
2019-04-16T21:39:03.003Z,5.97
2019-04-16T21:41:29.700Z,6.10
2019-04-16T21:44:01.039Z,5.60
2019-04-16T21:46:31.243Z,6.28
2019-04-16T21:49:02.551Z,6.03
2019-04-16T21:51:32.846Z,5.67
2019-04-16T21:54:02.116Z,6.22
2019-04-16T21:56:32.123Z,6.00
2019-04-16T21:59:04.728Z,6.72
2019-04-16T22:01:36.003Z,6.50
2019-04-16T22:04:14.456Z,5.90
2019-04-16T22:06:41.239Z,7.53
2019-04-16T22:09:11.787Z,6.75
2019-04-16T22:11:44.526Z,7.65
2019-04-16T22:14:13.743Z,7.72
2019-04-16T22:16:44.787Z,7.17
2019-04-16T22:21:53.210Z,7.65
2019-04-16T22:24:24.395Z,8.47
2019-04-16T22:26:57.747Z,7.92
2019-04-16T22:29:35.317Z,6.85
2019-04-16T22:32:05.554Z,7.55
2019-04-16T22:34:38.247Z,8.93
2019-04-16T22:37:08.563Z,8.05
2019-04-16T22:39:50.886Z,7.80
2019-04-16T22:42:22.426Z,8.23
2019-04-16T22:44:59.519Z,6.95
2019-04-16T22:47:33.347Z,7.45
2019-04-16T22:50:15.183Z,8.10
2019-04-16T22:52:34.318Z,7.65
2019-04-16T22:55:04.142Z,6.40
2019-04-16T22:57:34.311Z,5.85
2019-04-16T23:00:04.489Z,6.08
2019-04-16T23:02:36.322Z,6.78
2019-04-16T23:05:09.727Z,6.97
2019-04-16T23:07:40.796Z,6.62
2019-04-16T23:10:10.630Z,6.30
2019-04-16T23:12:40.121Z,6.72
2019-04-16T23:15:10.226Z,5.87
2019-04-16T23:17:39.401Z,5.28
2019-04-16T23:20:08.593Z,6.30
2019-04-16T23:22:37.746Z,6.75
2019-04-16T23:25:08.318Z,6.72
2019-04-16T23:27:38.275Z,6.25
2019-04-16T23:30:09.350Z,6.12
2019-04-16T23:32:38.570Z,6.10
2019-04-16T23:35:10.783Z,5.75
2019-04-16T23:37:39.420Z,5.35
2019-04-16T23:40:10.846Z,5.05
2019-04-16T23:42:38.918Z,5.15
2019-04-16T23:45:12.954Z,4.87
2019-04-16T23:48:15.522Z,4.92
2019-04-16T23:50:52.266Z,5.42
2019-04-16T23:53:29.550Z,4.65
2019-04-16T23:56:25.394Z,4.92
2019-04-16T23:59:04.244Z,4.60
